Time;durP1;ratioP1;P1;durP2;ratioP2;P2;SDS_P1;SDS_P2;PMS_P1;PMS_P2;Temp;Humidity;BMP_temperature;BMP_pressure;BME280_temperature;BME280_humidity;BME280_pressure;Samples;Min_cycle;Max_cycle;Signal;HPM_P1;HPM_P2
2024/04/01 00:00:05;;;;;;;0.10;0.10;;;;;;;;;;5046243;28;20255;-71
2024/04/01 00:02:31;;;;;;;0.10;0.10;;;;;;;;;;5034955;28;20455;-72
2024/04/01 00:04:57;;;;;;;0.10;0.10;;;;;;;;;;5046149;28;20214;-73
2024/04/01 00:07:23;;;;;;;0.00;0.00;;;;;;;;;;5034881;28;20440;-73
2024/04/01 00:09:50;;;;;;;0.10;0.10;;;;;;;;;;5046132;28;20259;-72
2024/04/01 00:12:16;;;;;;;46.47;11.40;;;;;;;;;;5034617;28;20287;-72
2024/04/01 00:14:42;;;;;;;0.10;0.10;;;;;;;;;;5046018;28;20430;-72
2024/04/01 00:17:08;;;;;;;0.00;0.00;;;;;;;;;;5034440;28;20240;-72
2024/04/01 00:19:34;;;;;;;0.10;0.10;;;;;;;;;;5045520;28;20541;-72
2024/04/01 00:22:00;;;;;;;0.10;0.10;;;;;;;;;;5033926;28;20243;-73
2024/04/01 00:24:28;;;;;;;0.03;0.03;;;;;;;;;;5045727;28;20393;-72
2024/04/01 00:26:56;;;;;;;0.10;0.10;;;;;;;;;;5034550;28;20240;-72
2024/04/01 00:29:22;;;;;;;0.20;0.20;;;;;;;;;;5045363;28;20517;-73
2024/04/01 00:31:48;;;;;;;0.10;0.10;;;;;;;;;;5034448;28;20240;-72
2024/04/01 00:34:16;;;;;;;0.10;0.10;;;;;;;;;;5045476;28;20394;-72
2024/04/01 00:36:42;;;;;;;0.03;0.03;;;;;;;;;;5034363;28;20241;-72
2024/04/01 00:39:08;;;;;;;0.10;0.10;;;;;;;;;;5045030;28;20259;-72
2024/04/01 00:41:34;;;;;;;0.10;0.10;;;;;;;;;;5034365;28;20247;-73
2024/04/01 00:44:01;;;;;;;0.50;0.50;;;;;;;;;;5045033;28;20239;-73
2024/04/01 00:46:27;;;;;;;0.10;0.10;;;;;;;;;;5034283;28;20243;-72
2024/04/01 00:48:53;;;;;;;0.10;0.10;;;;;;;;;;5044859;28;20212;-71
2024/04/01 00:51:20;;;;;;;0.10;0.10;;;;;;;;;;5034343;28;20276;-72
2024/04/01 00:53:45;;;;;;;0.05;0.05;;;;;;;;;;5045062;28;20254;-72
2024/04/01 00:56:12;;;;;;;0.10;0.10;;;;;;;;;;5034264;28;20240;-72
2024/04/01 00:58:38;;;;;;;0.03;0.03;;;;;;;;;;5044613;28;20212;-72
2024/04/01 01:01:07;;;;;;;0.10;0.10;;;;;;;;;;5034121;28;20279;-72
2024/04/01 01:03:33;;;;;;;0.10;0.10;;;;;;;;;;5044696;28;20207;-72
2024/04/01 01:05:59;;;;;;;0.10;0.10;;;;;;;;;;5034208;28;20663;-72
2024/04/01 01:08:25;;;;;;;5.53;5.32;;;;;;;;;;5044342;28;20250;-72
2024/04/01 01:10:51;;;;;;;0.10;0.10;;;;;;;;;;5034167;28;20243;-73
2024/04/01 01:13:16;;;;;;;0.10;0.10;;;;;;;;;;5044207;28;20205;-72
2024/04/01 01:15:43;;;;;;;0.10;0.10;;;;;;;;;;5034247;28;20586;-72
2024/04/01 01:18:10;;;;;;;0.10;0.10;;;;;;;;;;5044134;28;20278;-72
2024/04/01 01:20:37;;;;;;;0.10;0.10;;;;;;;;;;5033916;28;20248;-72
2024/04/01 01:23:04;;;;;;;0.33;0.33;;;;;;;;;;5044007;28;20505;-72
2024/04/01 01:25:31;;;;;;;0.35;0.35;;;;;;;;;;5034230;28;20255;-74
2024/04/01 01:27:56;;;;;;;0.10;0.10;;;;;;;;;;5043843;28;20209;-72
2024/04/01 01:30:23;;;;;;;0.20;0.20;;;;;;;;;;5033955;28;20427;-72
2024/04/01 01:32:49;;;;;;;0.08;0.08;;;;;;;;;;5042714;28;20218;-71
2024/04/01 01:35:15;;;;;;;0.20;0.20;;;;;;;;;;5034029;28;20506;-73
2024/04/01 01:37:41;;;;;;;0.10;0.10;;;;;;;;;;5043589;28;20216;-72
2024/04/01 01:40:09;;;;;;;0.10;0.10;;;;;;;;;;5044098;28;20412;-72
2024/04/01 01:42:35;;;;;;;0.10;0.10;;;;;;;;;;5016492;28;20393;-72
2024/04/01 01:45:01;;;;;;;0.20;0.20;;;;;;;;;;5044376;28;20270;-72
2024/04/01 01:47:27;;;;;;;1.38;1.38;;;;;;;;;;5032739;28;20256;-72
2024/04/01 01:49:53;;;;;;;0.10;0.10;;;;;;;;;;5044176;28;20206;-72
2024/04/01 01:52:18;;;;;;;0.03;0.03;;;;;;;;;;5032677;28;20247;-72
2024/04/01 01:54:45;;;;;;;0.10;0.10;;;;;;;;;;5044181;28;20201;-72
2024/04/01 01:57:12;;;;;;;0.10;0.10;;;;;;;;;;5032528;28;20324;-72
2024/04/01 01:59:38;;;;;;;0.10;0.10;;;;;;;;;;5043717;28;20247;-72
2024/04/01 02:02:03;;;;;;;9.73;9.23;;;;;;;;;;5032449;28;20474;-72
2024/04/01 02:04:30;;;;;;;0.10;0.10;;;;;;;;;;5044059;28;20203;-74
2024/04/01 02:06:58;;;;;;;0.10;0.10;;;;;;;;;;5032643;28;20263;-74
2024/04/01 02:09:24;;;;;;;0.10;0.10;;;;;;;;;;5043501;28;20221;-74
2024/04/01 02:11:49;;;;;;;0.10;0.10;;;;;;;;;;5032570;28;20337;-72
2024/04/01 02:14:17;;;;;;;0.95;0.95;;;;;;;;;;5043416;28;20203;-72
2024/04/01 02:16:43;;;;;;;0.10;0.10;;;;;;;;;;5032058;28;20238;-72
2024/04/01 02:19:09;;;;;;;0.30;0.30;;;;;;;;;;5042945;28;20403;-72
2024/04/01 02:21:34;;;;;;;0.10;0.10;;;;;;;;;;5032455;28;20309;-72
2024/04/01 02:24:01;;;;;;;0.10;0.10;;;;;;;;;;5043527;28;20211;-73
2024/04/01 02:26:26;;;;;;;0.10;0.10;;;;;;;;;;5032505;28;20243;-72
2024/04/01 02:28:53;;;;;;;0.77;0.73;;;;;;;;;;5043301;28;20208;-72
2024/04/01 02:31:19;;;;;;;0.10;0.10;;;;;;;;;;5032762;28;20252;-72
2024/04/01 02:33:46;;;;;;;0.10;0.10;;;;;;;;;;5042822;28;20207;-72
2024/04/01 02:36:11;;;;;;;0.00;0.00;;;;;;;;;;5032599;28;20251;-72
2024/04/01 02:38:38;;;;;;;0.10;0.10;;;;;;;;;;5042770;28;20203;-72
2024/04/01 02:41:04;;;;;;;0.10;0.10;;;;;;;;;;5032427;28;20256;-72
2024/04/01 02:43:30;;;;;;;0.05;0.05;;;;;;;;;;5042128;28;20212;-72
2024/04/01 02:45:55;;;;;;;0.00;0.00;;;;;;;;;;5032801;28;20453;-73
2024/04/01 02:48:23;;;;;;;0.13;0.13;;;;;;;;;;5042738;28;20221;-74
2024/04/01 02:50:48;;;;;;;0.10;0.10;;;;;;;;;;5032684;28;20252;-74
2024/04/01 02:53:15;;;;;;;0.10;0.10;;;;;;;;;;5042503;28;20519;-73
2024/04/01 02:55:40;;;;;;;0.10;0.10;;;;;;;;;;5032684;28;20377;-72
2024/04/01 02:58:06;;;;;;;0.10;0.10;;;;;;;;;;5042538;28;20213;-72
2024/04/01 03:00:32;;;;;;;0.68;0.68;;;;;;;;;;5032628;28;20259;-72
2024/04/01 03:02:58;;;;;;;0.20;0.20;;;;;;;;;;5042202;28;20230;-72
2024/04/01 03:05:26;;;;;;;0.10;0.10;;;;;;;;;;5032619;28;20241;-72
2024/04/01 03:07:53;;;;;;;0.10;0.10;;;;;;;;;;5042001;28;20208;-72
2024/04/01 03:10:18;;;;;;;0.10;0.10;;;;;;;;;;5032835;28;20426;-72
2024/04/01 03:12:45;;;;;;;0.77;0.77;;;;;;;;;;5042042;28;20219;-73
2024/04/01 03:15:16;;;;;;;0.10;0.10;;;;;;;;;;5032646;28;20204;-72
2024/04/01 03:17:43;;;;;;;0.10;0.10;;;;;;;;;;5041963;28;20218;-74
2024/04/01 03:20:10;;;;;;;0.10;0.10;;;;;;;;;;5035507;28;20261;-72
2024/04/01 03:22:38;;;;;;;0.10;0.10;;;;;;;;;;5041824;28;20224;-71
2024/04/01 03:25:04;;;;;;;0.10;0.10;;;;;;;;;;5042923;28;20374;-72
2024/04/01 03:27:31;;;;;;;0.10;0.10;;;;;;;;;;5031708;28;20236;-72
2024/04/01 03:29:56;;;;;;;0.10;0.10;;;;;;;;;;5042644;28;20271;-73
2024/04/01 03:32:23;;;;;;;0.10;0.10;;;;;;;;;;5031607;28;20240;-71
2024/04/01 03:34:48;;;;;;;0.10;0.10;;;;;;;;;;5042741;28;20212;-74
2024/04/01 03:37:15;;;;;;;0.10;0.10;;;;;;;;;;5031559;28;20246;-73
2024/04/01 03:39:44;;;;;;;0.53;0.53;;;;;;;;;;5042642;28;20233;-72
2024/04/01 03:42:11;;;;;;;0.00;0.00;;;;;;;;;;5031320;28;20241;-73
2024/04/01 03:44:37;;;;;;;0.10;0.10;;;;;;;;;;5042562;28;20214;-72
2024/04/01 03:47:03;;;;;;;0.10;0.10;;;;;;;;;;5031525;28;20591;-72
2024/04/01 03:49:29;;;;;;;0.10;0.10;;;;;;;;;;5042541;28;20203;-72
2024/04/01 03:51:55;;;;;;;0.10;0.10;;;;;;;;;;5031416;28;20241;-72
2024/04/01 03:54:21;;;;;;;0.10;0.10;;;;;;;;;;5042411;28;20204;-72
2024/04/01 03:56:48;;;;;;;0.10;0.10;;;;;;;;;;5033951;28;20248;-73
2024/04/01 03:59:15;;;;;;;0.30;0.30;;;;;;;;;;5046069;28;20211;-71
2024/04/01 04:01:44;;;;;;;0.10;0.10;;;;;;;;;;5034943;28;20492;-72
2024/04/01 04:04:10;;;;;;;0.10;0.10;;;;;;;;;;5045887;28;20230;-72
2024/04/01 04:06:36;;;;;;;0.98;0.93;;;;;;;;;;5034842;28;20315;-72
2024/04/01 04:09:03;;;;;;;0.10;0.10;;;;;;;;;;5045881;28;20210;-71
2024/04/01 04:11:28;;;;;;;0.10;0.10;;;;;;;;;;5035018;28;20247;-72
2024/04/01 04:13:56;;;;;;;0.10;0.10;;;;;;;;;;5045686;28;20200;-72
2024/04/01 04:16:21;;;;;;;0.10;0.10;;;;;;;;;;5034739;28;20322;-74
2024/04/01 04:18:48;;;;;;;0.10;0.10;;;;;;;;;;5045622;28;20209;-73
2024/04/01 04:21:13;;;;;;;0.10;0.10;;;;;;;;;;5034964;28;20264;-73
2024/04/01 04:23:39;;;;;;;0.52;0.52;;;;;;;;;;5045041;28;20408;-72
2024/04/01 04:26:08;;;;;;;0.10;0.10;;;;;;;;;;5035048;28;20310;-72
2024/04/01 04:28:35;;;;;;;0.10;0.10;;;;;;;;;;5045326;28;20398;-72
2024/04/01 04:31:01;;;;;;;0.10;0.10;;;;;;;;;;5034999;28;20493;-72
2024/04/01 04:33:28;;;;;;;0.10;0.10;;;;;;;;;;5045171;28;20250;-72
2024/04/01 04:35:53;;;;;;;0.10;0.10;;;;;;;;;;5035177;28;20261;-72
2024/04/01 04:38:19;;;;;;;0.10;0.10;;;;;;;;;;5044743;28;20230;-72
2024/04/01 04:40:45;;;;;;;0.20;0.20;;;;;;;;;;5034919;28;20311;-73
2024/04/01 04:43:11;;;;;;;0.80;0.77;;;;;;;;;;5044783;28;20220;-72
2024/04/01 04:45:37;;;;;;;0.10;0.10;;;;;;;;;;5034966;28;20243;-72
2024/04/01 04:48:05;;;;;;;0.10;0.10;;;;;;;;;;5044714;28;20214;-72
2024/04/01 04:50:31;;;;;;;0.77;0.77;;;;;;;;;;5034751;28;20251;-72
2024/04/01 04:52:57;;;;;;;0.10;0.10;;;;;;;;;;5044445;28;20219;-72
2024/04/01 04:55:23;;;;;;;0.10;0.10;;;;;;;;;;5034713;28;20208;-72
2024/04/01 04:57:49;;;;;;;0.10;0.10;;;;;;;;;;5044100;28;20216;-72
2024/04/01 05:00:21;;;;;;;1.60;1.60;;;;;;;;;;5034463;28;20227;-72
2024/04/01 05:02:48;;;;;;;0.10;0.10;;;;;;;;;;5044202;28;20258;-73
2024/04/01 05:05:15;;;;;;;0.10;0.10;;;;;;;;;;5034688;28;20214;-72
2024/04/01 05:07:41;;;;;;;0.10;0.10;;;;;;;;;;5043833;28;20211;-72
2024/04/01 05:10:07;;;;;;;0.10;0.10;;;;;;;;;;5044668;28;20204;-72
2024/04/01 05:12:33;;;;;;;0.10;0.10;;;;;;;;;;5017124;28;20218;-72
2024/04/01 05:14:59;;;;;;;0.10;0.10;;;;;;;;;;5044602;28;20213;-72
2024/04/01 05:17:25;;;;;;;2.03;2.03;;;;;;;;;;5033553;28;20243;-72
2024/04/01 05:19:50;;;;;;;0.10;0.10;;;;;;;;;;5044802;28;20207;-72
2024/04/01 05:22:18;;;;;;;0.10;0.10;;;;;;;;;;5033213;28;20246;-72
2024/04/01 05:24:44;;;;;;;0.47;0.47;;;;;;;;;;5044454;28;20217;-72
2024/04/01 05:27:10;;;;;;;0.10;0.10;;;;;;;;;;5033319;28;20279;-72
2024/04/01 05:29:36;;;;;;;0.10;0.10;;;;;;;;;;5044713;28;20242;-73
2024/04/01 05:32:02;;;;;;;0.10;0.10;;;;;;;;;;5033214;28;20452;-72
2024/04/01 05:34:31;;;;;;;0.10;0.10;;;;;;;;;;5044539;28;20242;-72
2024/04/01 05:36:57;;;;;;;0.10;0.10;;;;;;;;;;5033127;28;20491;-73
2024/04/01 05:39:25;;;;;;;0.30;0.30;;;;;;;;;;5044259;28;20246;-72
2024/04/01 05:41:51;;;;;;;1.03;1.03;;;;;;;;;;5033164;28;20488;-74
2024/04/01 05:44:17;;;;;;;0.63;0.63;;;;;;;;;;5044264;28;20430;-73
2024/04/01 05:46:43;;;;;;;0.10;0.10;;;;;;;;;;5033043;28;20240;-72
2024/04/01 05:49:09;;;;;;;0.10;0.10;;;;;;;;;;5044035;28;20208;-72
2024/04/01 05:51:35;;;;;;;0.10;0.10;;;;;;;;;;5033044;28;20634;-72
2024/04/01 05:54:00;;;;;;;0.10;0.10;;;;;;;;;;5043583;28;20233;-72
2024/04/01 05:56:28;;;;;;;0.10;0.10;;;;;;;;;;5033136;28;20248;-72
2024/04/01 05:58:53;;;;;;;0.10;0.10;;;;;;;;;;5043750;28;20239;-72
2024/04/01 06:01:20;;;;;;;0.10;0.10;;;;;;;;;;5032704;28;20449;-72
2024/04/01 06:03:45;;;;;;;0.10;0.10;;;;;;;;;;5043295;28;20276;-72
2024/04/01 06:06:11;;;;;;;0.10;0.10;;;;;;;;;;5033115;28;20248;-72
2024/04/01 06:08:37;;;;;;;0.10;0.10;;;;;;;;;;5043234;28;20197;-72
2024/04/01 06:11:03;;;;;;;0.10;0.10;;;;;;;;;;5032925;28;20246;-72
2024/04/01 06:13:30;;;;;;;0.10;0.10;;;;;;;;;;5043190;28;20211;-72
2024/04/01 06:15:56;;;;;;;0.10;0.10;;;;;;;;;;5032914;28;20251;-72
2024/04/01 06:18:22;;;;;;;0.10;0.10;;;;;;;;;;5042527;28;20216;-73
2024/04/01 06:20:49;;;;;;;0.10;0.10;;;;;;;;;;5033044;28;20247;-72
2024/04/01 06:23:14;;;;;;;0.00;0.00;;;;;;;;;;5043018;28;20247;-74
2024/04/01 06:25:42;;;;;;;0.10;0.10;;;;;;;;;;5032893;28;20244;-73
2024/04/01 06:28:08;;;;;;;0.10;0.10;;;;;;;;;;5042908;28;20211;-72
2024/04/01 06:30:36;;;;;;;0.10;0.10;;;;;;;;;;5032930;28;20292;-72
2024/04/01 06:33:01;;;;;;;0.10;0.10;;;;;;;;;;5042732;28;20212;-72
2024/04/01 06:35:27;;;;;;;0.10;0.10;;;;;;;;;;5033236;28;20259;-72
2024/04/01 06:37:53;;;;;;;0.10;0.10;;;;;;;;;;5042726;28;20288;-73
2024/04/01 06:40:19;;;;;;;0.00;0.00;;;;;;;;;;5032855;28;20422;-72
2024/04/01 06:42:45;;;;;;;0.10;0.10;;;;;;;;;;5042578;28;20375;-72
2024/04/01 06:45:11;;;;;;;0.10;0.10;;;;;;;;;;5032875;28;20209;-72
2024/04/01 06:47:38;;;;;;;0.10;0.10;;;;;;;;;;5042277;28;20207;-72
2024/04/01 06:50:05;;;;;;;0.10;0.10;;;;;;;;;;5043354;28;20390;-72
2024/04/01 06:52:30;;;;;;;1.30;1.30;;;;;;;;;;5031841;28;20243;-72
2024/04/01 06:54:57;;;;;;;0.10;0.10;;;;;;;;;;5043317;28;20208;-72
2024/04/01 06:57:22;;;;;;;0.10;0.10;;;;;;;;;;5032037;28;20252;-73
2024/04/01 06:59:49;;;;;;;0.20;0.20;;;;;;;;;;5043037;28;20207;-73
2024/04/01 07:02:14;;;;;;;0.10;0.10;;;;;;;;;;5031759;28;20637;-72
2024/04/01 07:04:42;;;;;;;0.10;0.10;;;;;;;;;;5043206;28;20210;-72
2024/04/01 07:07:07;;;;;;;0.20;0.20;;;;;;;;;;5031856;28;20303;-72
2024/04/01 07:09:34;;;;;;;0.57;0.57;;;;;;;;;;5043271;28;20210;-72
2024/04/01 07:11:59;;;;;;;0.10;0.10;;;;;;;;;;5031805;28;20468;-73
2024/04/01 07:14:27;;;;;;;0.10;0.10;;;;;;;;;;5042761;28;20200;-72
2024/04/01 07:16:52;;;;;;;0.32;0.32;;;;;;;;;;5031743;28;20243;-72
2024/04/01 07:19:19;;;;;;;0.10;0.10;;;;;;;;;;5042954;28;20200;-72
2024/04/01 07:21:46;;;;;;;0.10;0.10;;;;;;;;;;5031831;28;20240;-73
2024/04/01 07:24:14;;;;;;;0.22;0.22;;;;;;;;;;5042865;28;20212;-72
2024/04/01 07:26:40;;;;;;;1.02;0.98;;;;;;;;;;5031847;28;20439;-73
2024/04/01 07:29:06;;;;;;;0.10;0.10;;;;;;;;;;5042534;28;20207;-72
2024/04/01 07:31:32;;;;;;;0.10;0.10;;;;;;;;;;5035850;28;20240;-72
2024/04/01 07:34:00;;;;;;;0.10;0.10;;;;;;;;;;5046489;28;20390;-72
2024/04/01 07:36:25;;;;;;;0.10;0.10;;;;;;;;;;5035611;28;20297;-72
2024/04/01 07:38:53;;;;;;;0.17;0.17;;;;;;;;;;5046152;28;20272;-72
2024/04/01 07:41:18;;;;;;;0.10;0.10;;;;;;;;;;5035359;28;20312;-72
2024/04/01 07:43:45;;;;;;;0.10;0.10;;;;;;;;;;5046084;28;20202;-72
2024/04/01 07:46:10;;;;;;;0.10;0.10;;;;;;;;;;5035689;28;20472;-73
2024/04/01 07:48:37;;;;;;;0.10;0.10;;;;;;;;;;5045930;28;20272;-74
2024/04/01 07:51:03;;;;;;;0.00;0.00;;;;;;;;;;5035630;28;20439;-73
2024/04/01 07:53:29;;;;;;;0.00;0.00;;;;;;;;;;5045953;28;20236;-72
2024/04/01 07:55:56;;;;;;;0.10;0.10;;;;;;;;;;5035474;28;20300;-73
2024/04/01 07:58:22;;;;;;;0.10;0.10;;;;;;;;;;5045786;28;20263;-72
2024/04/01 08:00:47;;;;;;;0.03;0.03;;;;;;;;;;5035449;28;20249;-72
2024/04/01 08:03:14;;;;;;;0.00;0.00;;;;;;;;;;5045689;28;20213;-73
2024/04/01 08:05:39;;;;;;;0.00;0.00;;;;;;;;;;5035521;28;20248;-72
2024/04/01 08:08:06;;;;;;;7.82;7.18;;;;;;;;;;5045554;28;20273;-72
2024/04/01 08:10:31;;;;;;;0.10;0.10;;;;;;;;;;5035620;28;20246;-72
2024/04/01 08:12:59;;;;;;;0.08;0.08;;;;;;;;;;5045316;28;20231;-72
2024/04/01 08:15:25;;;;;;;0.10;0.10;;;;;;;;;;5035406;28;20275;-72
2024/04/01 08:17:51;;;;;;;0.05;0.05;;;;;;;;;;5045285;28;20205;-72
2024/04/01 08:20:16;;;;;;;0.10;0.10;;;;;;;;;;5035477;28;20388;-72
2024/04/01 08:22:43;;;;;;;0.10;0.10;;;;;;;;;;5044851;28;20207;-72
2024/04/01 08:25:08;;;;;;;0.10;0.10;;;;;;;;;;5042696;28;20214;-72
2024/04/01 08:27:34;;;;;;;0.10;0.10;;;;;;;;;;5040122;28;20368;-73
2024/04/01 08:30:01;;;;;;;0.08;0.08;;;;;;;;;;5045520;28;20205;-74
2024/04/01 08:32:28;;;;;;;0.10;0.10;;;;;;;;;;5034273;28;20241;-72
2024/04/01 08:34:53;;;;;;;0.00;0.00;;;;;;;;;;5045348;28;20293;-72
2024/04/01 08:37:20;;;;;;;0.05;0.05;;;;;;;;;;5034335;28;20255;-73
2024/04/01 08:39:45;;;;;;;0.10;0.10;;;;;;;;;;5045424;28;20226;-72
2024/04/01 08:42:16;;;;;;;0.00;0.00;;;;;;;;;;5033636;28;20257;-72
2024/04/01 08:44:46;;;;;;;13.95;12.13;;;;;;;;;;5045573;28;20410;-72
2024/04/01 08:47:15;;;;;;;0.10;0.10;;;;;;;;;;5033996;28;20590;-72
2024/04/01 08:49:44;;;;;;;0.00;0.00;;;;;;;;;;5045441;28;20253;-74
2024/04/01 08:52:13;;;;;;;0.10;0.10;;;;;;;;;;5033940;28;20580;-72
2024/04/01 08:54:39;;;;;;;0.08;0.08;;;;;;;;;;5045355;28;20461;-73
2024/04/01 08:57:05;;;;;;;0.10;0.10;;;;;;;;;;5033795;28;20280;-72
2024/04/01 08:59:31;;;;;;;0.00;0.00;;;;;;;;;;5045222;28;20229;-73
2024/04/01 09:01:57;;;;;;;0.03;0.03;;;;;;;;;;5034001;28;20242;-73
2024/04/01 09:04:24;;;;;;;0.10;0.10;;;;;;;;;;5045009;28;20244;-72
2024/04/01 09:06:50;;;;;;;0.00;0.00;;;;;;;;;;5033854;28;20242;-72
2024/04/01 09:09:16;;;;;;;0.00;0.00;;;;;;;;;;5044633;28;20245;-72
2024/04/01 09:11:42;;;;;;;0.10;0.10;;;;;;;;;;5033761;28;20238;-72
2024/04/01 09:14:09;;;;;;;0.05;0.05;;;;;;;;;;5044603;28;20211;-72
2024/04/01 09:16:35;;;;;;;0.03;0.03;;;;;;;;;;5033551;28;20549;-74
2024/04/01 09:19:06;;;;;;;0.03;0.03;;;;;;;;;;5044388;28;20205;-72
2024/04/01 09:21:35;;;;;;;0.00;0.00;;;;;;;;;;5033591;28;20243;-73
2024/04/01 09:24:00;;;;;;;0.00;0.00;;;;;;;;;;5044652;28;20397;-73
2024/04/01 09:26:28;;;;;;;0.10;0.10;;;;;;;;;;5033567;28;20297;-73
2024/04/01 09:28:54;;;;;;;0.00;0.00;;;;;;;;;;5044307;28;20233;-74
2024/04/01 09:31:20;;;;;;;0.00;0.00;;;;;;;;;;5033469;28;20236;-73
2024/04/01 09:33:46;;;;;;;0.00;0.00;;;;;;;;;;5044232;28;20450;-73
2024/04/01 09:36:13;;;;;;;0.10;0.10;;;;;;;;;;5033594;28;20241;-73
2024/04/01 09:38:40;;;;;;;0.00;0.00;;;;;;;;;;5044010;28;20260;-73
2024/04/01 09:41:06;;;;;;;0.00;0.00;;;;;;;;;;5033413;28;20580;-72
2024/04/01 09:43:32;;;;;;;0.00;0.00;;;;;;;;;;5043930;28;20229;-73
2024/04/01 09:45:58;;;;;;;0.10;0.10;;;;;;;;;;5033654;28;20241;-73
2024/04/01 09:48:25;;;;;;;0.00;0.00;;;;;;;;;;5043756;28;20239;-73
2024/04/01 09:50:53;;;;;;;0.00;0.00;;;;;;;;;;5033511;28;20314;-73
2024/04/01 09:53:18;;;;;;;0.00;0.00;;;;;;;;;;5042843;28;20240;-73
2024/04/01 09:55:56;;;;;;;0.00;0.00;;;;;;;;;;5033496;28;20237;-73
2024/04/01 09:58:32;;;;;;;0.00;0.00;;;;;;;;;;5043619;28;20236;-73
2024/04/01 10:01:05;;;;;;;0.10;0.10;;;;;;;;;;5033371;28;20485;-74
2024/04/01 10:03:50;;;;;;;0.10;0.10;;;;;;;;;;5043683;28;20392;-73
2024/04/01 10:06:43;;;;;;;0.00;0.00;;;;;;;;;;5033079;28;20650;-73
2024/04/01 10:09:31;;;;;;;0.00;0.00;;;;;;;;;;5043851;28;20438;-73
2024/04/01 10:12:09;;;;;;;0.03;0.03;;;;;;;;;;5032347;28;20250;-73
2024/04/01 10:14:55;;;;;;;0.03;0.03;;;;;;;;;;5044095;28;20384;-73
2024/04/01 10:17:35;;;;;;;0.10;0.10;;;;;;;;;;5027043;28;20303;-73
2024/04/01 10:20:07;;;;;;;0.63;0.63;;;;;;;;;;5043886;28;20229;-73
2024/04/01 10:22:43;;;;;;;0.10;0.10;;;;;;;;;;5032446;28;20316;-73
2024/04/01 10:25:17;;;;;;;1.55;1.55;;;;;;;;;;5040880;28;20435;-72
2024/04/01 10:28:01;;;;;;;3.10;0.95;;;;;;;;;;5042498;28;20223;-73
2024/04/01 10:30:42;;;;;;;0.57;0.57;;;;;;;;;;5032284;28;20249;-72
2024/04/01 10:33:31;;;;;;;0.00;0.00;;;;;;;;;;5042831;28;20205;-72
2024/04/01 10:36:07;;;;;;;0.00;0.00;;;;;;;;;;5032759;28;20257;-73
2024/04/01 10:38:55;;;;;;;0.10;0.10;;;;;;;;;;5042979;28;20216;-73
2024/04/01 10:41:37;;;;;;;0.10;0.10;;;;;;;;;;5032181;28;20497;-73
2024/04/01 10:44:35;;;;;;;0.10;0.10;;;;;;;;;;5043015;28;20190;-72
2024/04/01 10:47:16;;;;;;;0.10;0.10;;;;;;;;;;5032130;28;20477;-73
2024/04/01 10:49:58;;;;;;;0.00;0.00;;;;;;;;;;5043529;28;20418;-73
2024/04/01 10:52:41;;;;;;;0.10;0.10;;;;;;;;;;5032095;28;20233;-73
2024/04/01 10:55:17;;;;;;;0.10;0.10;;;;;;;;;;5043138;28;20222;-72
2024/04/01 10:58:00;;;;;;;0.10;0.10;;;;;;;;;;5043247;28;20377;-73
2024/04/01 11:00:54;;;;;;;0.10;0.10;;;;;;;;;;5031808;28;20207;-73
2024/04/01 11:03:35;;;;;;;0.00;0.00;;;;;;;;;;5007965;28;20438;-73
2024/04/01 11:06:19;;;;;;;0.00;0.00;;;;;;;;;;5035826;28;20517;-74
2024/04/01 11:08:55;;;;;;;0.10;0.10;;;;;;;;;;5046437;28;20451;-73
2024/04/01 11:11:29;;;;;;;0.00;0.00;;;;;;;;;;5036150;28;20286;-73
2024/04/01 11:13:55;;;;;;;0.10;0.10;;;;;;;;;;5046840;28;20230;-73
2024/04/01 11:16:22;;;;;;;0.00;0.00;;;;;;;;;;5036095;28;20251;-72
2024/04/01 11:18:49;;;;;;;0.00;0.00;;;;;;;;;;5046948;28;20409;-73
2024/04/01 11:21:18;;;;;;;0.08;0.08;;;;;;;;;;5035744;28;20243;-73
2024/04/01 11:23:54;;;;;;;0.10;0.10;;;;;;;;;;5046710;28;20227;-73
2024/04/01 11:26:32;;;;;;;0.00;0.00;;;;;;;;;;5035884;28;20244;-72
2024/04/01 11:29:07;;;;;;;0.00;0.00;;;;;;;;;;5046523;28;20268;-74
2024/04/01 11:31:35;;;;;;;0.00;0.00;;;;;;;;;;5035720;28;20239;-73
2024/04/01 11:34:03;;;;;;;5.40;3.50;;;;;;;;;;5046334;28;20304;-73
2024/04/01 11:36:34;;;;;;;0.00;0.00;;;;;;;;;;5035490;28;20275;-73
2024/04/01 11:39:04;;;;;;;0.00;0.00;;;;;;;;;;5046361;28;20298;-73
2024/04/01 11:41:32;;;;;;;0.00;0.00;;;;;;;;;;5035438;28;20236;-74
2024/04/01 11:43:58;;;;;;;0.20;0.20;;;;;;;;;;5046253;28;20276;-73
2024/04/01 11:46:25;;;;;;;0.00;0.00;;;;;;;;;;5035328;28;20241;-73
2024/04/01 11:48:53;;;;;;;0.45;0.45;;;;;;;;;;5046416;28;20243;-73
2024/04/01 11:51:30;;;;;;;0.00;0.00;;;;;;;;;;5035268;28;20283;-73
2024/04/01 11:53:57;;;;;;;2.17;0.52;;;;;;;;;;5046089;28;20227;-74
2024/04/01 11:56:36;;;;;;;62.83;33.22;;;;;;;;;;5035197;28;20247;-73
2024/04/01 11:59:03;;;;;;;0.45;0.45;;;;;;;;;;5046259;28;20279;-71
2024/04/01 12:01:31;;;;;;;0.00;0.00;;;;;;;;;;5035307;28;20259;-74
2024/04/01 12:03:57;;;;;;;0.00;0.00;;;;;;;;;;5046124;28;20216;-74
2024/04/01 12:06:23;;;;;;;0.10;0.10;;;;;;;;;;5035152;28;20299;-73
2024/04/01 12:08:50;;;;;;;0.00;0.00;;;;;;;;;;5046027;28;20398;-74
2024/04/01 12:11:15;;;;;;;0.00;0.00;;;;;;;;;;5034971;28;20308;-74
2024/04/01 12:13:43;;;;;;;0.28;0.28;;;;;;;;;;5045485;28;20208;-73
2024/04/01 12:16:11;;;;;;;0.20;0.20;;;;;;;;;;5034053;28;20576;-73
2024/04/01 12:18:42;;;;;;;6.00;5.47;;;;;;;;;;5045755;28;20449;-74
2024/04/01 12:21:08;;;;;;;0.00;0.00;;;;;;;;;;5035035;28;20249;-73
2024/04/01 12:23:34;;;;;;;0.10;0.10;;;;;;;;;;5045859;28;20256;-74
2024/04/01 12:26:04;;;;;;;0.08;0.08;;;;;;;;;;5034948;28;20260;-74
2024/04/01 12:28:31;;;;;;;9.40;8.75;;;;;;;;;;5045249;28;20204;-73
2024/04/01 12:30:58;;;;;;;0.52;0.52;;;;;;;;;;5034924;28;20288;-74
2024/04/01 12:33:27;;;;;;;0.00;0.00;;;;;;;;;;5045115;28;20231;-73
2024/04/01 12:35:54;;;;;;;0.10;0.10;;;;;;;;;;5035043;28;20568;-73
2024/04/01 12:38:22;;;;;;;0.00;0.00;;;;;;;;;;5045087;28;20212;-73
2024/04/01 12:40:50;;;;;;;0.20;0.20;;;;;;;;;;5035080;28;20327;-73
2024/04/01 12:43:17;;;;;;;3.65;2.15;;;;;;;;;;5044723;28;20228;-75
2024/04/01 12:45:43;;;;;;;0.25;0.25;;;;;;;;;;5034897;28;20271;-73
2024/04/01 12:48:13;;;;;;;10.65;5.95;;;;;;;;;;5044778;28;20277;-73
2024/04/01 12:50:41;;;;;;;3.45;3.30;;;;;;;;;;5034600;28;20247;-73
2024/04/01 12:53:14;;;;;;;4.45;3.05;;;;;;;;;;5044454;28;20240;-73
2024/04/01 12:55:41;;;;;;;7.13;1.10;;;;;;;;;;5034841;28;20250;-73
2024/04/01 12:58:12;;;;;;;1.05;0.95;;;;;;;;;;5044351;28;20198;-73
2024/04/01 13:00:38;;;;;;;0.00;0.00;;;;;;;;;;5034831;28;20475;-73
2024/04/01 13:03:17;;;;;;;2.72;2.25;;;;;;;;;;5044091;28;20301;-72
2024/04/01 13:05:48;;;;;;;0.10;0.10;;;;;;;;;;5034605;28;20245;-73
2024/04/01 13:08:21;;;;;;;0.10;0.10;;;;;;;;;;5044495;28;20392;-73
2024/04/01 13:10:52;;;;;;;0.00;0.00;;;;;;;;;;5034370;28;20464;-73
2024/04/01 13:13:27;;;;;;;0.10;0.10;;;;;;;;;;5044349;28;20199;-73
2024/04/01 13:15:54;;;;;;;0.15;0.15;;;;;;;;;;5034267;28;20257;-73
2024/04/01 13:18:23;;;;;;;0.00;0.00;;;;;;;;;;5044349;28;20395;-73
2024/04/01 13:20:52;;;;;;;0.10;0.10;;;;;;;;;;5034393;28;20309;-73
2024/04/01 13:23:21;;;;;;;0.10;0.10;;;;;;;;;;5044059;28;20302;-73
2024/04/01 13:25:49;;;;;;;3.30;1.95;;;;;;;;;;5033903;28;20259;-73
2024/04/01 13:28:19;;;;;;;0.20;0.20;;;;;;;;;;5043976;28;20501;-73
2024/04/01 13:30:52;;;;;;;0.45;0.45;;;;;;;;;;5033786;28;20263;-73
2024/04/01 13:33:22;;;;;;;0.15;0.15;;;;;;;;;;5044092;28;20201;-73
2024/04/01 13:35:57;;;;;;;0.03;0.03;;;;;;;;;;5033852;28;20523;-73
2024/04/01 13:38:27;;;;;;;0.10;0.10;;;;;;;;;;5043993;28;20207;-74
2024/04/01 13:40:59;;;;;;;0.32;0.32;;;;;;;;;;5033994;28;20243;-74
2024/04/01 13:43:33;;;;;;;0.32;0.32;;;;;;;;;;5043755;28;20228;-73
2024/04/01 13:46:04;;;;;;;0.10;0.10;;;;;;;;;;5033537;28;20288;-73
2024/04/01 13:48:39;;;;;;;0.90;0.90;;;;;;;;;;5043815;28;20372;-67
2024/04/01 13:51:10;;;;;;;0.15;0.15;;;;;;;;;;5033430;28;20240;-68
2024/04/01 13:53:43;;;;;;;0.57;0.57;;;;;;;;;;5043862;28;20537;-68
2024/04/01 13:56:20;;;;;;;0.00;0.00;;;;;;;;;;5033043;28;20248;-67
2024/04/01 13:58:50;;;;;;;0.22;0.20;;;;;;;;;;5043614;28;20196;-68
2024/04/01 14:01:19;;;;;;;0.25;0.25;;;;;;;;;;5033054;28;20240;-67
2024/04/01 14:03:52;;;;;;;0.10;0.10;;;;;;;;;;5043483;28;20260;-67
2024/04/01 14:06:26;;;;;;;0.10;0.10;;;;;;;;;;5032907;28;20573;-68
2024/04/01 14:08:54;;;;;;;1.07;0.30;;;;;;;;;;5043788;28;20417;-68
2024/04/01 14:11:23;;;;;;;0.10;0.10;;;;;;;;;;5032857;28;20516;-67
2024/04/01 14:13:52;;;;;;;0.10;0.10;;;;;;;;;;5043256;28;20199;-68
2024/04/01 14:16:20;;;;;;;0.10;0.10;;;;;;;;;;5032661;28;20256;-67
2024/04/01 14:18:54;;;;;;;0.17;0.17;;;;;;;;;;5043217;28;20200;-67
2024/04/01 14:21:20;;;;;;;1.00;0.30;;;;;;;;;;5032572;28;20311;-67
2024/04/01 14:23:47;;;;;;;0.25;0.25;;;;;;;;;;5043128;28;20294;-68
2024/04/01 14:26:14;;;;;;;0.10;0.10;;;;;;;;;;5032579;28;20287;-68
2024/04/01 14:28:40;;;;;;;0.10;0.10;;;;;;;;;;5043115;28;20203;-68
2024/04/01 14:31:06;;;;;;;0.10;0.10;;;;;;;;;;5032685;28;20250;-68
2024/04/01 14:33:32;;;;;;;0.03;0.03;;;;;;;;;;5043176;28;20390;-69
2024/04/01 14:35:57;;;;;;;0.10;0.10;;;;;;;;;;5032726;28;20271;-68
2024/04/01 14:38:26;;;;;;;0.10;0.10;;;;;;;;;;5042963;28;20204;-67
2024/04/01 14:40:51;;;;;;;0.10;0.10;;;;;;;;;;5032266;28;20304;-68
2024/04/01 14:43:19;;;;;;;0.10;0.10;;;;;;;;;;5042661;28;20236;-68
2024/04/01 14:45:45;;;;;;;0.03;0.03;;;;;;;;;;5033000;28;20252;-68
2024/04/01 14:48:13;;;;;;;0.10;0.10;;;;;;;;;;5042584;28;20204;-68